createdAt,value
2022-12-09T00:01:17.729Z,100225.66
2022-12-09T00:03:49.767Z,100221.31
2022-12-09T00:06:21.482Z,100221.41
2022-12-09T00:08:50.538Z,100232.69
2022-12-09T00:11:19.759Z,100230.00
2022-12-09T00:13:50.551Z,100231.84
2022-12-09T00:16:19.291Z,100231.88
2022-12-09T00:18:49.477Z,100230.06
2022-12-09T00:21:21.704Z,100230.94
2022-12-09T00:23:51.249Z,100236.03
2022-12-09T00:26:22.341Z,100231.66
2022-12-09T00:28:51.967Z,100237.75
2022-12-09T00:31:24.116Z,100233.44
2022-12-09T00:33:57.643Z,100236.94
2022-12-09T00:36:27.665Z,100238.84
2022-12-09T00:38:59.092Z,100231.88
2022-12-09T00:41:29.606Z,100241.31
2022-12-09T00:43:59.419Z,100242.06
2022-12-09T00:46:27.984Z,100243.75
2022-12-09T00:48:58.304Z,100245.47
2022-12-09T00:51:26.752Z,100248.09
2022-12-09T00:53:56.235Z,100254.28
2022-12-09T00:56:26.622Z,100254.16
2022-12-09T00:58:54.979Z,100250.63
2022-12-09T01:01:23.832Z,100248.00
2022-12-09T01:03:52.676Z,100247.25
2022-12-09T01:06:25.554Z,100244.63
2022-12-09T01:08:55.141Z,100252.44
2022-12-09T01:11:27.095Z,100257.66
2022-12-09T01:13:58.317Z,100264.44
2022-12-09T01:16:28.593Z,100262.78
2022-12-09T01:19:00.345Z,100263.38
2022-12-09T01:21:31.577Z,100264.47
2022-12-09T01:24:00.230Z,100260.06
2022-12-09T01:26:29.187Z,100262.59
2022-12-09T01:28:58.251Z,100269.47
2022-12-09T01:31:27.670Z,100264.25
2022-12-09T01:33:58.795Z,100264.31
2022-12-09T01:39:58.341Z,100268.66
2022-12-09T01:42:42.996Z,100268.75
2022-12-09T01:46:01.673Z,100265.31
2022-12-09T01:49:15.474Z,100266.91
2022-12-09T01:55:41.504Z,100258.13
2022-12-09T01:58:29.316Z,100252.03
2022-12-09T02:01:08.477Z,100254.56
2022-12-09T02:03:53.785Z,100253.63
2022-12-09T02:06:47.762Z,100258.84
2022-12-09T02:09:33.986Z,100252.78
2022-12-09T02:12:22.517Z,100250.19
2022-12-09T02:15:16.759Z,100239.81
2022-12-09T02:17:50.410Z,100236.34
2022-12-09T02:20:25.416Z,100245.88
2022-12-09T02:23:05.034Z,100235.41
2022-12-09T02:25:42.018Z,100238.13
2022-12-09T02:28:45.933Z,100238.91
2022-12-09T02:31:26.104Z,100235.47
2022-12-09T02:34:09.048Z,100228.44
2022-12-09T02:36:47.346Z,100236.25
2022-12-09T02:39:16.407Z,100250.09
2022-12-09T02:41:49.083Z,100251.91
2022-12-09T02:44:23.051Z,100248.41
2022-12-09T02:46:55.362Z,100246.69
2022-12-09T02:49:28.963Z,100248.47
2022-12-09T02:52:00.027Z,100246.69
2022-12-09T02:54:32.525Z,100235.44
2022-12-09T02:57:09.210Z,100238.03
2022-12-09T02:59:38.968Z,100232.81
2022-12-09T03:02:20.165Z,100234.66
2022-12-09T03:05:05.137Z,100222.56
2022-12-09T03:10:59.829Z,100215.53
2022-12-09T03:13:45.135Z,100215.59
2022-12-09T03:16:21.542Z,100212.03
2022-12-09T03:18:56.116Z,100212.16
2022-12-09T03:21:30.083Z,100212.97
2022-12-09T03:24:01.105Z,100215.59
2022-12-09T03:26:33.899Z,100212.97
2022-12-09T03:29:08.863Z,100213.66
2022-12-09T03:31:39.519Z,100211.00
2022-12-09T03:34:11.057Z,100203.19
2022-12-09T03:36:45.425Z,100213.59
2022-12-09T03:39:18.425Z,100204.84
2022-12-09T03:41:52.300Z,100201.44
2022-12-09T03:44:25.457Z,100210.09
2022-12-09T03:46:55.051Z,100205.84
2022-12-09T03:49:23.792Z,100197.00
2022-12-09T03:51:58.559Z,100204.69
2022-12-09T03:54:29.919Z,100201.16
2022-12-09T03:57:00.447Z,100206.50
2022-12-09T03:59:32.901Z,100198.53
2022-12-09T04:02:02.976Z,100196.91
2022-12-09T04:04:35.086Z,100203.06
2022-12-09T04:07:07.493Z,100193.59
2022-12-09T04:09:40.602Z,100198.78
2022-12-09T04:12:11.189Z,100194.44
2022-12-09T04:14:39.684Z,100192.69
2022-12-09T04:17:09.496Z,100198.81
2022-12-09T04:19:39.506Z,100186.56
2022-12-09T04:22:11.876Z,100190.03
2022-12-09T04:24:41.776Z,100190.00
2022-12-09T04:27:13.833Z,100195.13
2022-12-09T04:29:42.956Z,100194.31
2022-12-09T04:32:13.069Z,100198.53
2022-12-09T04:34:42.387Z,100186.50
2022-12-09T04:37:14.659Z,100186.41
2022-12-09T04:39:43.598Z,100188.13
2022-12-09T04:42:12.982Z,100189.09
2022-12-09T04:44:42.075Z,100185.66
2022-12-09T04:47:11.239Z,100194.38
2022-12-09T04:49:39.637Z,100195.09
2022-12-09T04:52:08.654Z,100187.31
2022-12-09T04:54:38.653Z,100195.13
2022-12-09T04:57:07.229Z,100198.69
2022-12-09T04:59:35.765Z,100187.38
2022-12-09T05:02:04.940Z,100194.09
2022-12-09T05:04:34.451Z,100192.47
2022-12-09T05:07:03.131Z,100201.88
2022-12-09T05:09:32.347Z,100192.19
2022-12-09T05:12:03.637Z,100192.28
2022-12-09T05:14:32.951Z,100190.41
2022-12-09T05:17:03.216Z,100188.59
2022-12-09T05:19:35.110Z,100191.97
2022-12-09T05:22:17.847Z,100197.22
2022-12-09T05:24:48.221Z,100192.88
2022-12-09T05:27:19.025Z,100196.38
2022-12-09T05:29:53.202Z,100199.84
2022-12-09T05:32:23.284Z,100197.22
2022-12-09T05:34:52.826Z,100193.63
2022-12-09T05:37:21.723Z,100196.22
2022-12-09T05:39:50.838Z,100199.69
2022-12-09T05:42:21.696Z,100199.69
2022-12-09T05:44:51.465Z,100202.22
2022-12-09T05:47:20.631Z,100202.16
2022-12-09T05:49:49.620Z,100202.16
2022-12-09T05:52:17.858Z,100208.25
2022-12-09T05:54:46.742Z,100196.97
2022-12-09T05:57:15.230Z,100195.25
2022-12-09T05:59:45.425Z,100190.16
2022-12-09T06:02:14.019Z,100190.16
2022-12-09T06:04:42.239Z,100184.13
2022-12-09T06:07:11.365Z,100189.22
2022-12-09T06:09:40.240Z,100179.97
2022-12-09T06:12:08.941Z,100186.00
2022-12-09T06:14:37.641Z,100184.16
2022-12-09T06:17:07.694Z,100182.31
2022-12-09T06:19:36.254Z,100183.13
2022-12-09T06:22:04.834Z,100181.50
2022-12-09T06:24:33.029Z,100175.44
2022-12-09T06:27:01.394Z,100187.63
2022-12-09T06:29:29.628Z,100183.34
2022-12-09T06:31:58.333Z,100185.00
2022-12-09T06:34:29.070Z,100190.13
2022-12-09T06:36:57.814Z,100197.19
2022-12-09T06:39:26.791Z,100186.94
2022-12-09T06:41:55.488Z,100195.63
2022-12-09T06:44:24.489Z,100194.78
2022-12-09T06:46:53.742Z,100190.31
2022-12-09T06:49:22.332Z,100190.13
2022-12-09T06:51:52.693Z,100182.22
2022-12-09T06:54:21.248Z,100189.09
2022-12-09T06:56:50.827Z,100183.81
2022-12-09T06:59:21.152Z,100188.19
2022-12-09T07:01:55.352Z,100192.41
2022-12-09T07:04:24.276Z,100180.44
2022-12-09T07:07:03.528Z,100187.59
2022-12-09T07:09:33.183Z,100185.00
2022-12-09T07:12:01.694Z,100188.34
2022-12-09T07:14:40.542Z,100186.59
2022-12-09T07:17:09.380Z,100191.88
2022-12-09T07:19:38.050Z,100194.78
2022-12-09T07:22:08.112Z,100194.28
2022-12-09T07:24:36.472Z,100197.03
2022-12-09T07:27:09.739Z,100189.38
2022-12-09T07:29:40.253Z,100184.25
2022-12-09T07:32:10.737Z,100186.19
2022-12-09T07:34:39.625Z,100194.94
2022-12-09T07:37:09.399Z,100189.75
2022-12-09T07:39:38.244Z,100185.47
2022-12-09T07:42:07.112Z,100184.75
2022-12-09T07:44:49.024Z,100186.53
2022-12-09T07:47:17.328Z,100189.13
2022-12-09T07:49:46.077Z,100198.72
2022-12-09T07:52:16.374Z,100194.50
2022-12-09T07:54:44.987Z,100194.44
2022-12-09T07:57:13.743Z,100200.56
2022-12-09T07:59:42.179Z,100200.38
2022-12-09T08:02:11.841Z,100197.69
2022-12-09T08:04:40.527Z,100200.34
2022-12-09T08:07:12.912Z,100197.06
2022-12-09T08:09:43.936Z,100202.31
2022-12-09T08:12:13.011Z,100200.63
2022-12-09T08:14:46.455Z,100203.22
2022-12-09T08:17:15.656Z,100206.56
2022-12-09T08:19:44.373Z,100205.66
2022-12-09T08:22:12.453Z,100202.28
2022-12-09T08:24:40.871Z,100207.41
2022-12-09T08:27:10.552Z,100197.19
2022-12-09T08:29:38.889Z,100201.66
2022-12-09T08:32:07.735Z,100207.72
2022-12-09T08:34:35.833Z,100213.78
2022-12-09T08:37:03.949Z,100208.56
2022-12-09T08:39:32.420Z,100206.00
2022-12-09T08:42:00.892Z,100210.41
2022-12-09T08:44:30.498Z,100202.66
2022-12-09T08:46:58.566Z,100208.78
2022-12-09T08:49:28.161Z,100204.44
2022-12-09T08:51:56.809Z,100195.75
2022-12-09T08:54:25.074Z,100206.28
2022-12-09T08:56:55.253Z,100197.56
2022-12-09T08:59:24.507Z,100197.56
2022-12-09T09:01:54.472Z,100197.69
2022-12-09T09:04:23.444Z,100193.38
2022-12-09T09:06:52.831Z,100193.44
2022-12-09T09:09:22.770Z,100197.78
2022-12-09T09:11:51.811Z,100194.31
2022-12-09T09:14:20.138Z,100204.56
2022-12-09T09:16:50.797Z,100211.44
2022-12-09T09:19:22.819Z,100213.25
2022-12-09T09:21:51.064Z,100212.34
2022-12-09T09:24:22.244Z,100216.72
2022-12-09T09:26:52.487Z,100216.84
2022-12-09T09:29:22.269Z,100209.91
2022-12-09T09:31:54.630Z,100216.81
2022-12-09T09:34:26.096Z,100216.72
2022-12-09T09:36:55.080Z,100220.31
2022-12-09T09:39:25.741Z,100207.34
2022-12-09T09:41:56.360Z,100215.16
2022-12-09T09:44:28.891Z,100206.47
2022-12-09T09:46:58.546Z,100209.16
2022-12-09T09:49:36.489Z,100217.88
2022-12-09T09:52:08.666Z,100213.59
2022-12-09T09:54:37.459Z,100218.75
2022-12-09T09:57:14.952Z,100207.47
2022-12-09T09:59:55.713Z,100210.97
2022-12-09T10:02:38.848Z,100204.84
2022-12-09T10:05:15.706Z,100203.13
2022-12-09T10:07:48.659Z,100208.38
2022-12-09T10:10:29.837Z,100203.97
2022-12-09T10:13:18.625Z,100208.34
2022-12-09T10:15:56.055Z,100209.22
2022-12-09T10:18:28.892Z,100203.13
2022-12-09T10:20:58.820Z,100204.84
2022-12-09T10:23:34.483Z,100203.13
2022-12-09T10:26:07.326Z,100194.41
2022-12-09T10:28:39.813Z,100191.78
2022-12-09T10:31:07.850Z,100192.66
2022-12-09T10:33:39.110Z,100187.41
2022-12-09T10:36:24.282Z,100187.41
2022-12-09T10:38:53.227Z,100182.19
2022-12-09T10:41:54.638Z,100189.16
2022-12-09T10:44:25.342Z,100190.91
2022-12-09T10:46:59.703Z,100189.16
2022-12-09T10:49:28.212Z,100189.16
2022-12-09T10:51:59.405Z,100182.13
2022-12-09T10:54:33.025Z,100183.88
2022-12-09T10:57:04.452Z,100176.88
2022-12-09T10:59:33.398Z,100173.41
2022-12-09T11:02:03.787Z,100184.78
2022-12-09T11:04:33.950Z,100176.94
2022-12-09T11:07:06.111Z,100185.69
2022-12-09T11:09:36.745Z,100178.66
2022-12-09T11:12:07.562Z,100179.56
2022-12-09T11:14:37.615Z,100178.69
2022-12-09T11:17:18.692Z,100178.66
2022-12-09T11:19:51.461Z,100169.09
2022-12-09T11:22:39.557Z,100180.44
2022-12-09T11:25:24.260Z,100176.03
2022-12-09T11:27:55.294Z,100171.69
2022-12-09T11:30:28.006Z,100175.22
2022-12-09T11:33:01.120Z,100172.59
2022-12-09T11:35:38.232Z,100172.56
2022-12-09T11:38:19.279Z,100174.31
2022-12-09T11:41:01.396Z,100178.69
2022-12-09T11:43:34.877Z,100177.81
2022-12-09T11:46:23.276Z,100176.94
2022-12-09T11:48:57.518Z,100184.81
2022-12-09T11:51:29.961Z,100181.31
2022-12-09T11:54:06.092Z,100178.69
2022-12-09T11:56:35.769Z,100177.81
2022-12-09T11:59:07.894Z,100181.31
2022-12-09T12:01:48.119Z,100179.56
2022-12-09T12:04:21.117Z,100180.44
2022-12-09T12:07:02.631Z,100178.66
2022-12-09T12:09:39.320Z,100177.81
2022-12-09T12:12:23.629Z,100162.06
2022-12-09T12:14:51.686Z,100168.16
2022-12-09T12:17:26.155Z,100166.44
2022-12-09T12:19:56.311Z,100164.69
2022-12-09T12:22:50.182Z,100168.16
2022-12-09T12:25:44.728Z,100162.03
2022-12-09T12:28:57.224Z,100159.47
2022-12-09T12:31:43.235Z,100161.22
2022-12-09T12:34:26.980Z,100157.75
2022-12-09T12:37:05.936Z,100154.19
2022-12-09T12:39:46.356Z,100159.47
2022-12-09T12:42:30.910Z,100152.41
2022-12-09T12:45:21.041Z,100159.47
2022-12-09T12:47:57.667Z,100155.97
2022-12-09T12:50:54.010Z,100144.59
2022-12-09T12:53:32.728Z,100148.94
2022-12-09T12:56:04.655Z,100143.72
2022-12-09T12:58:58.139Z,100137.59
2022-12-09T13:01:33.519Z,100141.09
2022-12-09T13:04:21.635Z,100135.88
2022-12-09T13:06:55.540Z,100138.44
2022-12-09T13:09:28.509Z,100131.47
2022-12-09T13:12:06.635Z,100128.81
2022-12-09T13:14:41.193Z,100122.66
2022-12-09T13:17:15.023Z,100121.81
2022-12-09T13:19:45.692Z,100131.41
2022-12-09T13:22:20.873Z,100127.97
2022-12-09T13:25:00.142Z,100120.94
2022-12-09T13:27:35.871Z,100120.91
2022-12-09T13:30:12.015Z,100120.03
2022-12-09T13:32:56.714Z,100120.84
2022-12-09T13:35:32.179Z,100118.25
2022-12-09T13:38:01.215Z,100119.22
2022-12-09T13:40:39.001Z,100121.00
2022-12-09T13:43:16.627Z,100125.41
2022-12-09T13:45:58.395Z,100116.59
2022-12-09T13:48:48.570Z,100120.16
2022-12-09T14:03:34.902Z,100118.47
2022-12-09T14:06:27.283Z,100122.81
2022-12-09T14:11:57.619Z,100124.56
2022-12-09T15:34:49.557Z,100142.56
2022-12-09T15:37:24.133Z,100138.19
2022-12-09T15:39:59.611Z,100134.75
2022-12-09T15:42:32.211Z,100146.03
2022-12-09T15:45:09.614Z,100145.97
2022-12-09T15:47:48.002Z,100149.47
2022-12-09T16:12:30.034Z,100163.66
2022-12-09T16:15:01.423Z,100160.22
2022-12-09T16:17:32.974Z,100168.06
2022-12-09T16:20:22.834Z,100162.75
2022-12-09T17:17:13.093Z,100173.19
2022-12-09T17:19:44.255Z,100178.34
2022-12-09T17:22:15.482Z,100187.66
2022-12-09T17:27:55.916Z,100191.97
2022-12-09T17:30:34.716Z,100181.69
2022-12-09T17:33:04.470Z,100185.13
2022-12-09T17:35:38.417Z,100182.53
2022-12-09T17:38:09.771Z,100183.34
2022-12-09T17:40:40.191Z,100179.94
2022-12-09T17:46:40.536Z,100175.63
2022-12-09T17:49:12.283Z,100180.69
2022-12-09T17:51:43.160Z,100179.81
2022-12-09T17:54:19.356Z,100192.78
2022-12-09T17:56:50.487Z,100189.16
2022-12-09T17:59:29.067Z,100176.28
2022-12-09T18:02:06.214Z,100184.09
2022-12-09T18:04:37.150Z,100194.38
2022-12-09T18:07:08.770Z,100203.13
2022-12-09T18:09:47.563Z,100200.44
2022-12-09T18:12:28.269Z,100209.91
2022-12-09T18:15:11.799Z,100199.34
2022-12-09T18:17:42.296Z,100205.38
2022-12-09T18:20:19.483Z,100213.22
2022-12-09T18:22:52.017Z,100207.00
2022-12-09T18:25:39.358Z,100206.22
2022-12-09T18:28:29.345Z,100210.56
2022-12-09T19:43:55.145Z,100249.88
2022-12-09T20:26:44.207Z,100261.22
2022-12-09T20:57:16.246Z,100277.16
2022-12-09T21:03:06.021Z,100281.09
2022-12-09T21:05:40.238Z,100276.31
2022-12-09T21:08:11.983Z,100277.97
2022-12-09T21:11:02.946Z,100270.06
2022-12-09T21:14:06.640Z,100269.94
2022-12-09T22:09:12.906Z,100309.44
2022-12-09T22:12:06.053Z,100310.00
2022-12-09T23:03:45.057Z,100322.50
2022-12-09T23:45:13.146Z,100322.47
2022-12-09T23:47:54.203Z,100310.13
2022-12-09T23:59:43.277Z,100326.75
